KBDL/BDL METAR and TAF weather

Enter ICAO airport designator
Station Type Date Time Source
KBDL METAR 2018/07/16 23:51 UTC NOAA

KBDL 162351Z 19012KT 10SM FEW090 BKN110 BKN200 BKN250 29/22 A2989 RMK AO2 SLP120 60008 T02940222 10328 20261 56006


Station Type Date Time Source
KBDL Decoded METAR 2018/07/16 23:51 UTC NOAA

BRADLEY INTERNATIONAL AIRPORT , CT, United States (KBDL) 41-56N 072-41W 60M
Jul 16, 2018 - 07:51 PM EDT / 2018.07.16 2351 UTC
Wind: from the S (190 degrees) at 14 MPH (12 KT):0
Visibility: 10 mile(s):0
Sky conditions: mostly cloudy
Temperature: 84.9 F (29.4 C)
Dew Point: 72.0 F (22.2 C)
Relative Humidity: 65%
Pressure (altimeter): 29.89 in. Hg (1012 hPa)
Pressure tendency: 0.02 inches (0.6 hPa) lower than three hours ago
ob: KBDL 162351Z 19012KT 10SM FEW090 BKN110 BKN200 BKN250 29/22 A2989 RMK AO2 SLP120 60008 T02940222 10328 20261 56006
cycle: 0

Station Type Date Time Source
KBDL TAF 2018/07/16 21:59 UTC NOAA

TAF
AMD KBDL 162059Z 1621/1724 16011G20KT P6SM -RA SCT050 BKN070
FM162200 17006KT P6SM SCT050
FM170900 18005KT P6SM BKN025
FM171200 18007KT P6SM BKN020
FM171400 19007KT P6SM BKN035
FM171800 20009KT P6SM +SHRA OVC035
FM172200 21007KT P6SM +SHRA OVC030


Example: see airport list